Yarmouth, Maine
Current Conditions -  °F | °C
As of 5:51 PM on Wednesday 22 Oct 2014 (Local Time) from KPWM Reporting Station
Haze Haze  
Wind Chill: 50°   Ceiling: 1000
Heat Index: 50°   Visibility: 5mi
Dew Point: 46°   Wind: 20mph
Humidity: 86%   Direction: 30°NNE
Pressure: 30.04"   Gusts: 31mph
Location:  43.8°N, 70.19°W
Report Text: KPWM 222151Z 03017G27KT 5SM BR OVC010 10/08 A3004 RMK AO2 PK WND 01029/2053 RAE48 SLP172 P0002 T01000078
Loading
Personal Weather Stations






























Interactive Weather Map
Tropical Storm Tracking
New forecast layout! Learn more

10-Day Weather Forecast

Advertisements
Track Severe Weather on mobile